Time;durP1;ratioP1;P1;durP2;ratioP2;P2;SDS_P1;SDS_P2;PMS_P1;PMS_P2;Temp;Humidity;BMP_temperature;BMP_pressure;BME280_temperature;BME280_humidity;BME280_pressure;Samples;Min_cycle;Max_cycle;Signal;HPM_P1;HPM_P2
2022/01/16 00:00:17;;;;;;;;;35.75;33.00;;;;;3.88;58.70;102144.19;5024464;28;45160;-45
2022/01/16 00:05:29;;;;;;;;;56.50;44.00;;;;;3.86;58.60;102141.53;5042052;28;45962;-45
2022/01/16 00:07:56;;;;;;;;;59.25;44.00;;;;;3.86;58.77;102145.84;5041423;28;45256;-45
2022/01/16 00:10:24;;;;;;;;;55.00;42.25;;;;;3.84;58.69;102132.78;5042100;28;45372;-48
2022/01/16 00:12:49;;;;;;;;;59.50;43.75;;;;;3.86;58.63;102130.22;5042061;28;45324;-44
2022/01/16 00:15:22;;;;;;;;;62.75;47.00;;;;;3.85;58.69;102138.84;5041654;28;46068;-44
2022/01/16 00:20:40;;;;;;;;;51.25;42.75;;;;;3.81;58.58;102152.59;5046652;28;45340;-45
2022/01/16 00:23:09;;;;;;;;;59.00;44.50;;;;;3.82;58.72;102142.22;5041598;28;45429;-48
2022/01/16 00:25:34;;;;;;;;;55.50;46.75;;;;;3.81;58.48;102137.00;5041374;28;45424;-47
2022/01/16 00:27:59;;;;;;;;;56.50;44.00;;;;;3.81;58.44;102143.09;5041704;28;45405;-47
2022/01/16 00:30:25;;;;;;;;;62.75;47.75;;;;;3.83;58.92;102154.41;5041580;28;45732;-49
2022/01/16 00:32:50;;;;;;;;;62.25;48.25;;;;;3.85;58.40;102175.28;5041661;28;45301;-48
2022/01/16 00:35:16;;;;;;;;;55.00;44.50;;;;;3.85;58.78;102176.19;5041562;28;46161;-49
2022/01/16 00:37:41;;;;;;;;;65.25;45.25;;;;;3.86;58.52;102182.25;5041023;28;45255;-48
2022/01/16 00:40:09;;;;;;;;;60.50;47.50;;;;;3.88;58.31;102162.41;5040779;28;45235;-44
2022/01/16 00:42:35;;;;;;;;;55.50;43.75;;;;;3.89;58.49;102138.16;5041414;28;45326;-45
2022/01/16 00:45:02;;;;;;;;;61.00;45.00;;;;;3.89;58.48;102138.16;5041236;28;46776;-45
2022/01/16 00:47:28;;;;;;;;;56.00;44.75;;;;;3.90;58.83;102152.94;5041416;28;45320;-44
2022/01/16 00:49:53;;;;;;;;;63.00;46.00;;;;;3.89;59.06;102164.16;5050508;28;45244;-47
2022/01/16 00:52:19;;;;;;;;;68.50;48.75;;;;;3.91;58.76;102175.50;5041494;28;45318;-44
2022/01/16 00:54:44;;;;;;;;;69.50;53.50;;;;;3.92;58.93;102176.41;5041032;28;45276;-46
2022/01/16 00:57:10;;;;;;;;;58.00;45.75;;;;;3.91;58.47;102180.69;5041526;28;45329;-47
2022/01/16 00:59:36;;;;;;;;;76.25;56.00;;;;;3.92;58.52;102169.47;5041122;28;45329;-45
2022/01/16 01:02:02;;;;;;;;;70.75;50.25;;;;;3.90;58.83;102216.25;5023376;28;45403;-44
2022/01/16 01:04:27;;;;;;;;;48.25;42.25;;;;;3.93;58.45;102194.66;5023053;28;47742;-45
2022/01/16 01:06:53;;;;;;;;;52.75;41.75;;;;;3.93;58.68;102225.88;5041137;28;45258;-45
2022/01/16 01:09:19;;;;;;;;;56.50;42.00;;;;;3.94;58.68;102211.13;5023069;28;45431;-45
2022/01/16 01:11:48;;;;;;;;;59.50;46.50;;;;;3.92;59.01;102231.03;5041033;28;45383;-45
2022/01/16 01:14:38;;;;;;;;;59.25;49.00;;;;;3.90;58.36;102223.16;5040754;28;46910;-43
2022/01/16 01:17:04;;;;;;;;;51.00;41.50;;;;;3.85;58.74;102219.47;5040957;28;45258;-47
2022/01/16 01:19:33;;;;;;;;;64.75;49.50;;;;;3.84;58.71;102210.81;5035778;28;45293;-45
2022/01/16 01:22:00;;;;;;;;;56.25;41.00;;;;;3.84;58.40;102182.19;5045611;28;45862;-45
2022/01/16 01:24:29;;;;;;;;;59.25;43.50;;;;;3.81;58.71;102139.59;5040687;28;46228;-47
2022/01/16 01:27:02;;;;;;;;;59.00;44.75;;;;;3.79;58.50;102144.75;5040665;28;45314;-49
2022/01/16 01:29:29;;;;;;;;;59.00;49.00;;;;;3.74;58.77;102125.50;5040998;28;45289;-44
2022/01/16 01:31:54;;;;;;;;;56.25;41.75;;;;;3.74;58.45;102112.50;5023160;28;45479;-44
2022/01/16 01:34:20;;;;;;;;;58.50;46.25;;;;;3.75;58.79;102124.66;5040644;28;46141;-48
2022/01/16 01:36:48;;;;;;;;;51.25;38.75;;;;;3.73;58.70;102157.53;5040616;28;45190;-45
2022/01/16 01:39:18;;;;;;;;;51.50;41.25;;;;;3.68;58.98;102157.34;5040496;28;45349;-47
2022/01/16 01:41:44;;;;;;;;;66.25;49.00;;;;;3.65;58.58;102177.13;5006534;28;45544;-45
2022/01/16 01:52:34;;;;;;;;;49.00;41.75;;;;;3.56;58.47;102221.91;5040536;28;45317;-48
2022/01/16 01:54:59;;;;;;;;;59.75;45.75;;;;;3.55;58.77;102234.00;5040151;28;45322;-48
2022/01/16 01:57:25;;;;;;;;;47.75;41.00;;;;;3.55;58.71;102221.00;5040407;28;45305;-46
2022/01/16 01:59:50;;;;;;;;;58.50;44.50;;;;;3.56;59.03;102229.69;5040355;28;45171;-48
2022/01/16 02:02:16;;;;;;;;;57.50;41.50;;;;;3.54;58.86;102237.41;5040418;28;45199;-44
2022/01/16 02:04:41;;;;;;;;;56.25;44.25;;;;;3.53;59.00;102253.84;5040249;28;46237;-49
2022/01/16 02:07:07;;;;;;;;;60.25;45.25;;;;;3.53;58.95;102259.03;5040298;28;45821;-46
2022/01/16 02:09:33;;;;;;;;;58.75;44.00;;;;;3.51;58.75;102268.50;5039984;28;45407;-49
2022/01/16 02:11:58;;;;;;;;;54.25;42.00;;;;;3.51;58.46;102278.91;5040168;28;45473;-47
2022/01/16 02:28:13;;;;;;;;;55.75;42.25;;;;;3.42;58.61;102294.13;5040185;28;45404;-47
2022/01/16 02:31:25;;;;;;;;;58.50;44.50;;;;;3.41;58.99;102295.84;5040068;28;45269;-46
2022/01/16 02:38:59;;;;;;;;;60.25;44.50;;;;;3.44;58.67;102279.47;5039544;28;45310;-46
2022/01/16 02:41:25;;;;;;;;;59.00;43.75;;;;;3.47;58.80;102266.63;5039799;28;45344;-44
2022/01/16 02:43:52;;;;;;;;;56.75;45.00;;;;;3.47;58.51;102266.63;5039874;28;45422;-44
2022/01/16 02:48:50;;;;;;;;;60.75;47.00;;;;;3.47;58.64;102242.31;5043170;28;45194;-45
2022/01/16 02:51:21;;;;;;;;;61.00;45.25;;;;;3.46;58.65;102241.44;5025951;28;45300;-44
2022/01/16 02:53:48;;;;;;;;;59.25;46.50;;;;;3.45;58.69;102225.78;5039551;28;45530;-46
2022/01/16 02:56:14;;;;;;;;;60.00;44.75;;;;;3.46;59.05;102238.84;5039381;28;46046;-45
2022/01/16 02:58:40;;;;;;;;;58.50;44.00;;;;;3.44;58.64;102240.50;5021663;28;45270;-44
2022/01/16 03:01:06;;;;;;;;;61.00;47.25;;;;;3.47;58.74;102239.72;5039661;28;45417;-47
2022/01/16 03:03:31;;;;;;;;;59.25;44.25;;;;;3.48;58.92;102247.56;5043133;28;45238;-47
2022/01/16 03:05:57;;;;;;;;;65.25;44.25;;;;;3.45;58.63;102250.06;5042703;28;46126;-44
2022/01/16 03:08:22;;;;;;;;;63.50;49.00;;;;;3.46;58.63;102244.03;5042773;28;45368;-46
2022/01/16 03:11:05;;;;;;;;;62.25;46.75;;;;;3.48;59.01;102231.97;5042877;28;45191;-46
2022/01/16 03:13:32;;;;;;;;;59.50;44.75;;;;;3.47;59.19;102225.03;5042939;28;45411;-44
2022/01/16 03:15:58;;;;;;;;;55.25;41.00;;;;;3.47;58.74;102227.63;5042708;28;46227;-45
2022/01/16 03:23:33;;;;;;;;;59.25;46.00;;;;;3.48;58.68;102221.56;5042610;28;45298;-47
2022/01/16 03:25:59;;;;;;;;;62.75;47.25;;;;;3.46;58.77;102218.06;5024682;28;45357;-45
2022/01/16 03:28:25;;;;;;;;;58.75;45.50;;;;;3.49;58.94;102218.16;5042599;28;45201;-46
2022/01/16 03:30:51;;;;;;;;;56.00;44.25;;;;;3.48;59.19;102205.97;5042912;28;45427;-47
2022/01/16 03:33:17;;;;;;;;;56.25;43.00;;;;;3.49;59.28;102212.97;5042533;28;45345;-48
2022/01/16 03:35:43;;;;;;;;;56.25;44.75;;;;;3.44;58.89;102198.91;5042578;28;45938;-48
2022/01/16 03:38:09;;;;;;;;;59.50;48.00;;;;;3.47;58.92;102200.72;5042404;28;45255;-49
2022/01/16 03:40:35;;;;;;;;;62.25;47.75;;;;;3.46;58.78;102212.84;5042530;28;45268;-45
2022/01/16 03:43:11;;;;;;;;;61.25;45.00;;;;;3.46;59.14;102228.44;5042388;28;45487;-46
2022/01/16 03:45:37;;;;;;;;;60.75;44.25;;;;;3.45;58.96;102229.28;5042521;28;46992;-47
2022/01/16 03:48:02;;;;;;;;;58.50;45.25;;;;;3.46;58.97;102223.25;5042382;28;45313;-45
2022/01/16 03:50:27;;;;;;;;;60.75;45.50;;;;;3.45;59.01;102225.78;5050861;28;45234;-48
2022/01/16 03:52:53;;;;;;;;;61.00;44.25;;;;;3.45;59.42;102242.28;5042015;28;45237;-45
2022/01/16 03:55:20;;;;;;;;;61.25;45.50;;;;;3.48;59.13;102239.78;5042235;28;46121;-47
2022/01/16 03:57:45;;;;;;;;;57.00;45.00;;;;;3.47;58.94;102235.44;5042118;28;45240;-47
2022/01/16 04:00:11;;;;;;;;;58.50;45.00;;;;;3.45;58.97;102231.88;5042369;28;45239;-46
2022/01/16 04:02:36;;;;;;;;;67.75;46.50;;;;;3.41;59.06;102220.47;5041954;28;45666;-48
2022/01/16 04:05:02;;;;;;;;;60.75;45.00;;;;;3.42;59.04;102230.03;5042145;28;46120;-47
2022/01/16 04:07:33;;;;;;;;;59.75;41.00;;;;;3.41;59.54;102236.06;5041861;28;45286;-46
2022/01/16 04:09:58;;;;;;;;;62.50;46.50;;;;;3.38;59.33;102230.75;5042165;28;45222;-45
2022/01/16 04:12:24;;;;;;;;;58.00;44.25;;;;;3.33;59.18;102226.19;5037293;28;45528;-46
2022/01/16 04:17:20;;;;;;;;;60.50;46.00;;;;;3.30;58.90;102242.53;5041877;28;45246;-48
2022/01/16 04:19:46;;;;;;;;;58.00;46.50;;;;;3.24;59.60;102253.56;5042136;28;45546;-46
2022/01/16 04:22:12;;;;;;;;;58.25;46.00;;;;;3.20;59.56;102262.06;5041767;28;45459;-46
2022/01/16 04:24:38;;;;;;;;;57.25;45.00;;;;;3.20;59.78;102253.41;5041661;28;46881;-45
2022/01/16 04:27:04;;;;;;;;;57.00;41.00;;;;;3.20;59.44;102258.59;5041668;28;45246;-47
2022/01/16 04:29:30;;;;;;;;;56.00;42.50;;;;;3.17;59.19;102254.16;5041926;28;45484;-45
2022/01/16 04:31:55;;;;;;;;;60.75;42.50;;;;;3.18;59.59;102252.44;5041685;28;45247;-46
2022/01/16 04:34:21;;;;;;;;;52.25;42.00;;;;;3.19;59.31;102256.81;5041835;28;45246;-48
2022/01/16 04:36:46;;;;;;;;;54.25;40.25;;;;;3.18;59.47;102268.94;5041652;28;45464;-46
2022/01/16 04:39:15;;;;;;;;;41.25;20.00;;;;;3.17;59.07;102277.56;5023673;28;45380;-46
2022/01/16 04:44:26;;;;;;;;;55.25;41.50;;;;;3.12;59.40;102278.16;5026469;28;45374;-49
2022/01/16 04:46:52;;;;;;;;;55.50;42.00;;;;;3.14;59.18;102290.41;5041625;28;45345;-46
2022/01/16 04:49:18;;;;;;;;;54.00;41.25;;;;;3.09;59.14;102278.94;5049712;28;45403;-47
2022/01/16 04:51:43;;;;;;;;;57.00;45.75;;;;;3.09;59.71;102292.84;5023592;28;45368;-47
2022/01/16 04:54:08;;;;;;;;;67.50;49.25;;;;;3.05;59.35;102284.84;5040958;28;46019;-45
2022/01/16 04:56:34;;;;;;;;;62.00;45.00;;;;;3.01;59.23;102289.00;5041496;28;45237;-45
2022/01/16 04:59:00;;;;;;;;;61.75;44.50;;;;;3.00;59.59;102275.97;5023787;28;45267;-44
2022/01/16 05:01:25;;;;;;;;;58.00;47.75;;;;;2.96;59.54;102279.28;5041255;28;45300;-45
2022/01/16 05:03:51;;;;;;;;;58.75;40.50;;;;;2.96;59.81;102281.88;5041334;28;46025;-43
2022/01/16 05:06:16;;;;;;;;;50.50;39.75;;;;;2.94;59.68;102289.56;5040953;28;45205;-45
2022/01/16 05:08:42;;;;;;;;;62.00;44.75;;;;;2.92;59.23;102278.25;5041346;28;45337;-44
2022/01/16 05:11:09;;;;;;;;;59.75;46.75;;;;;2.95;59.62;102290.47;5040975;28;45486;-45
2022/01/16 05:18:53;;;;;;;;;59.00;45.25;;;;;2.88;59.66;102315.28;5041174;28;45419;-43
2022/01/16 05:21:19;;;;;;;;;55.00;44.00;;;;;2.88;59.32;102318.78;5040955;28;45568;-46
2022/01/16 05:23:46;;;;;;;;;58.00;43.00;;;;;2.88;59.84;102318.78;5040633;28;46345;-45
2022/01/16 05:26:12;;;;;;;;;61.25;45.50;;;;;2.87;59.37;102314.41;5022487;28;45405;-45
2022/01/16 05:28:38;;;;;;;;;53.00;41.25;;;;;2.88;59.54;102323.97;5040970;28;45229;-45
2022/01/16 05:31:04;;;;;;;;;57.00;44.50;;;;;2.90;59.36;102318.84;5040898;28;45468;-44
2022/01/16 05:33:30;;;;;;;;;65.50;49.75;;;;;2.89;59.55;102327.44;5040720;28;45282;-45
2022/01/16 05:35:56;;;;;;;;;54.50;44.00;;;;;2.87;59.66;102335.19;5040882;28;45252;-44
2022/01/16 05:38:21;;;;;;;;;61.25;45.00;;;;;2.88;59.79;102341.25;5040645;28;45460;-44
2022/01/16 05:40:47;;;;;;;;;67.00;48.00;;;;;2.89;59.81;102345.63;5040557;28;45337;-44
2022/01/16 05:43:13;;;;;;;;;62.25;47.75;;;;;2.87;59.96;102348.16;5022620;28;47083;-46
2022/01/16 05:45:38;;;;;;;;;63.25;48.25;;;;;2.88;60.19;102346.44;5040660;28;45368;-45
2022/01/16 05:48:04;;;;;;;;;59.50;46.25;;;;;2.89;59.74;102348.22;5040614;28;45318;-44
2022/01/16 05:50:31;;;;;;;;;57.00;42.00;;;;;2.90;59.65;102345.69;5050285;28;45308;-46
2022/01/16 05:52:57;;;;;;;;;62.00;49.50;;;;;2.90;59.81;102337.88;5040163;28;46962;-47
2022/01/16 05:55:23;;;;;;;;;68.75;46.75;;;;;2.90;60.11;102340.50;5040417;28;45163;-48
2022/01/16 05:57:48;;;;;;;;;66.50;49.00;;;;;2.90;60.15;102342.22;5040509;28;45183;-48
2022/01/16 06:00:15;;;;;;;;;60.75;45.50;;;;;2.89;59.66;102323.16;5040565;28;45211;-49
2022/01/16 06:02:41;;;;;;;;;58.75;44.75;;;;;2.86;60.18;102323.00;5040070;28;46315;-48
2022/01/16 06:05:07;;;;;;;;;58.25;43.75;;;;;2.82;60.41;102328.00;5040529;28;45261;-49
2022/01/16 06:07:32;;;;;;;;;51.50;37.75;;;;;2.84;60.08;102362.72;5040014;28;45411;-48
2022/01/16 06:09:58;;;;;;;;;59.00;46.25;;;;;2.84;59.93;102366.19;5040092;28;45415;-46
2022/01/16 06:12:23;;;;;;;;;56.00;45.00;;;;;2.83;60.63;102368.72;5039977;28;46145;-46
2022/01/16 06:14:48;;;;;;;;;63.00;45.00;;;;;2.82;60.42;102373.03;5040521;28;45385;-48
2022/01/16 06:17:14;;;;;;;;;56.50;44.50;;;;;2.83;60.56;102371.31;5040173;28;45349;-45
2022/01/16 06:19:40;;;;;;;;;57.00;45.00;;;;;2.81;60.62;102370.38;5040231;28;45309;-48
2022/01/16 06:22:05;;;;;;;;;54.50;40.75;;;;;2.81;60.74;102367.78;5039768;28;46030;-47
2022/01/16 06:24:31;;;;;;;;;55.25;44.00;;;;;2.74;60.66;102353.63;5039910;28;45395;-49
2022/01/16 06:26:56;;;;;;;;;59.25;44.50;;;;;2.73;60.53;102370.03;5040092;28;45239;-47
2022/01/16 06:29:23;;;;;;;;;52.25;33.50;;;;;2.74;60.84;102389.97;5040177;28;45334;-46
2022/01/16 06:31:48;;;;;;;;;56.50;40.50;;;;;2.76;60.53;102385.75;5021826;28;46059;-48
2022/01/16 06:34:13;;;;;;;;;59.50;41.75;;;;;2.73;60.67;102378.72;5022001;28;45349;-49
2022/01/16 06:36:39;;;;;;;;;52.50;41.75;;;;;2.76;60.80;102384.03;5038889;28;45236;-48
2022/01/16 06:39:07;;;;;;;;;59.25;42.00;;;;;2.78;60.51;102384.13;5039826;28;45312;-46
2022/01/16 06:41:34;;;;;;;;;57.00;40.75;;;;;2.76;61.16;102380.56;5039380;28;45416;-45
2022/01/16 06:44:00;;;;;;;;;55.75;42.50;;;;;2.76;60.72;102384.03;5039932;28;45416;-46
2022/01/16 06:46:26;;;;;;;;;61.00;43.25;;;;;2.76;61.21;102377.97;5039788;28;45265;-47
2022/01/16 06:48:51;;;;;;;;;47.25;40.25;;;;;2.75;60.83;102391.75;5044420;28;45334;-47
2022/01/16 06:51:20;;;;;;;;;51.50;40.50;;;;;2.72;60.82;102395.13;5043134;28;45431;-44
2022/01/16 06:53:50;;;;;;;;;51.75;34.50;;;;;2.69;61.17;102394.09;5039533;28;45278;-48
2022/01/16 06:56:16;;;;;;;;;45.50;30.50;;;;;2.73;61.25;102412.47;5021739;28;45258;-48
2022/01/16 06:58:42;;;;;;;;;49.00;39.00;;;;;2.71;61.10;102408.91;5039685;28;45353;-47
2022/01/16 07:01:08;;;;;;;;;49.75;36.25;;;;;2.70;61.25;102430.50;5021365;28;47185;-45
2022/01/16 07:03:34;;;;;;;;;44.50;34.00;;;;;2.69;61.57;102425.25;5039627;28;45392;-45
2022/01/16 07:06:00;;;;;;;;;44.50;38.00;;;;;2.66;61.59;102426.00;5039354;28;45435;-48
2022/01/16 07:08:26;;;;;;;;;46.50;38.00;;;;;2.60;61.73;102418.84;5039273;28;45245;-46
2022/01/16 07:10:54;;;;;;;;;33.25;25.50;;;;;2.67;61.32;102439.88;5039076;28;45412;-45
2022/01/16 07:13:21;;;;;;;;;42.50;34.00;;;;;2.68;61.54;102437.34;5039481;28;45320;-46
2022/01/16 07:15:47;;;;;;;;;37.25;32.25;;;;;2.66;61.28;102428.59;5039362;28;45294;-44
2022/01/16 07:18:12;;;;;;;;;53.75;34.00;;;;;2.69;61.37;102443.41;5021468;28;45371;-46
2022/01/16 07:20:38;;;;;;;;;32.25;28.00;;;;;2.69;61.40;102440.81;5038975;28;45268;-46
2022/01/16 07:23:04;;;;;;;;;36.50;30.00;;;;;2.68;61.79;102445.13;5039014;28;45398;-47
2022/01/16 07:25:29;;;;;;;;;36.75;28.25;;;;;2.69;61.35;102444.31;5021079;28;45476;-43
2022/01/16 07:27:54;;;;;;;;;38.25;25.75;;;;;2.70;61.74;102463.38;5039236;28;45177;-46
2022/01/16 07:30:20;;;;;;;;;40.25;33.75;;;;;2.66;61.85;102470.13;5038981;28;45341;-48
2022/01/16 07:32:45;;;;;;;;;41.50;31.25;;;;;2.67;61.99;102455.47;5039075;28;45309;-45
2022/01/16 07:35:10;;;;;;;;;49.00;38.25;;;;;2.66;61.42;102449.34;5039195;28;45142;-46
2022/01/16 07:37:36;;;;;;;;;39.75;32.75;;;;;2.67;61.84;102455.47;5021331;28;45773;-48
2022/01/16 07:40:01;;;;;;;;;47.00;35.25;;;;;2.64;61.37;102440.63;5038950;28;45314;-48
2022/01/16 07:42:27;;;;;;;;;32.00;26.50;;;;;2.60;61.97;102439.59;5039097;28;45274;-48
2022/01/16 07:44:52;;;;;;;;;40.00;30.00;;;;;2.61;61.72;102424.91;5039162;28;45254;-49
2022/01/16 07:47:18;;;;;;;;;48.50;31.50;;;;;2.58;61.56;102433.44;5039141;28;45494;-46
2022/01/16 07:49:43;;;;;;;;;40.50;29.50;;;;;2.66;61.84;102458.88;5051129;28;45419;-47
2022/01/16 07:52:08;;;;;;;;;33.00;27.75;;;;;2.69;62.09;102470.28;5042602;28;45479;-47
2022/01/16 07:54:34;;;;;;;;;45.50;32.00;;;;;2.70;61.89;102468.56;5024319;28;45286;-50
2022/01/16 07:56:59;;;;;;;;;46.75;33.75;;;;;2.76;62.11;102468.84;5042347;28;45388;-47
2022/01/16 07:59:24;;;;;;;;;32.50;26.25;;;;;2.72;61.70;102448.75;5042190;28;45401;-48
2022/01/16 08:01:50;;;;;;;;;45.50;32.25;;;;;2.73;62.20;102454.03;5042046;28;45329;-47
2022/01/16 08:04:15;;;;;;;;;34.75;26.50;;;;;2.78;62.17;102456.84;5042270;28;45462;-49
2022/01/16 08:06:40;;;;;;;;;35.25;29.50;;;;;2.79;61.65;102445.59;5042182;28;45633;-47
2022/01/16 08:09:06;;;;;;;;;38.50;31.75;;;;;2.79;61.90;102440.41;5041614;28;46181;-47
2022/01/16 08:11:31;;;;;;;;;36.50;28.75;;;;;2.85;62.16;102461.47;5041979;28;45301;-46
2022/01/16 08:13:56;;;;;;;;;34.75;29.50;;;;;2.87;61.63;102454.63;5042106;28;45267;-46
2022/01/16 08:16:22;;;;;;;;;42.00;30.25;;;;;2.88;62.09;102447.72;5041912;28;45170;-47
2022/01/16 08:18:47;;;;;;;;;41.50;32.75;;;;;2.90;61.84;102459.06;5041800;28;45261;-46
2022/01/16 08:21:13;;;;;;;;;43.25;33.00;;;;;2.89;62.15;102466.00;5041740;28;45175;-47
2022/01/16 08:23:38;;;;;;;;;45.00;35.75;;;;;2.92;62.06;102470.44;5049725;28;45375;-49
2022/01/16 08:26:04;;;;;;;;;35.50;28.25;;;;;2.94;62.07;102455.78;5041835;28;45478;-44
2022/01/16 08:28:29;;;;;;;;;41.00;35.25;;;;;2.99;62.18;102458.59;5041797;28;46920;-46
2022/01/16 08:30:55;;;;;;;;;41.00;33.50;;;;;2.97;62.47;102458.53;5041764;28;45230;-48
2022/01/16 08:33:20;;;;;;;;;46.50;38.50;;;;;3.00;62.00;102458.66;5041584;28;45155;-47
2022/01/16 08:35:46;;;;;;;;;45.00;32.75;;;;;3.05;62.23;102462.34;5023873;28;45412;-46
2022/01/16 08:38:11;;;;;;;;;37.00;31.50;;;;;3.07;62.45;102465.03;5036570;28;47249;-46
2022/01/16 08:40:37;;;;;;;;;42.00;34.75;;;;;3.06;62.74;102461.53;5041393;28;45160;-44
2022/01/16 08:43:08;;;;;;;;;40.25;31.50;;;;;3.06;62.61;102460.66;5041706;28;45327;-48
2022/01/16 08:45:37;;;;;;;;;37.50;29.75;;;;;3.06;62.62;102455.47;5041724;28;45231;-45
2022/01/16 08:48:03;;;;;;;;;39.25;33.25;;;;;3.12;62.61;102468.72;5041383;28;45371;-49
2022/01/16 08:50:29;;;;;;;;;44.50;32.25;;;;;3.12;62.39;102478.22;5049851;28;45416;-47
2022/01/16 08:52:54;;;;;;;;;17.50;11.75;;;;;3.11;62.68;102473.81;5041316;28;45313;-47
2022/01/16 08:55:19;;;;;;;;;43.25;29.50;;;;;3.13;62.59;102488.66;5023345;28;45726;-46
2022/01/16 08:57:45;;;;;;;;;43.25;31.00;;;;;3.10;63.14;102467.75;5041152;28;45903;-46
2022/01/16 09:00:11;;;;;;;;;36.00;29.50;;;;;3.13;62.77;102478.28;5040278;28;45382;-47
2022/01/16 09:02:36;;;;;;;;;31.00;25.50;;;;;3.17;62.90;102484.50;5049073;28;45365;-48
2022/01/16 09:05:03;;;;;;;;;34.75;29.25;;;;;3.17;63.16;102480.22;5023339;28;45237;-47
2022/01/16 09:07:28;;;;;;;;;39.00;30.75;;;;;3.19;62.52;102494.13;5025085;28;46600;-46
2022/01/16 09:09:54;;;;;;;;;31.75;25.00;;;;;3.20;62.84;102500.25;5043025;28;45284;-46
2022/01/16 09:12:19;;;;;;;;;33.25;26.25;;;;;3.19;63.02;102478.53;5061204;28;45616;-44
2022/01/16 09:14:45;;;;;;;;;32.75;28.25;;;;;3.25;63.06;102489.22;5061325;28;45435;-46
2022/01/16 09:17:10;;;;;;;;;33.00;26.75;;;;;3.27;62.49;102475.41;5026366;28;47306;-48
2022/01/16 09:19:36;;;;;;;;;20.25;18.00;;;;;3.33;62.81;102505.13;5061083;28;45253;-45
2022/01/16 09:22:01;;;;;;;;;33.25;27.50;;;;;3.38;62.48;102510.53;5061110;28;45220;-45
2022/01/16 09:24:26;;;;;;;;;33.00;20.25;;;;;3.39;62.80;102517.53;5060870;28;45532;-45
2022/01/16 09:26:54;;;;;;;;;27.75;25.00;;;;;3.39;63.04;102535.72;5060829;28;45313;-45
2022/01/16 09:29:21;;;;;;;;;32.50;20.75;;;;;3.42;62.87;102539.34;5061097;28;45322;-47
2022/01/16 09:31:46;;;;;;;;;27.00;24.75;;;;;3.44;63.05;102522.94;5060928;28;45419;-46
2022/01/16 09:34:11;;;;;;;;;28.50;25.25;;;;;3.41;62.98;102515.91;5060911;28;45493;-46
2022/01/16 09:36:38;;;;;;;;;29.00;25.00;;;;;3.43;63.17;102524.63;5060915;28;46702;-47
2022/01/16 09:39:03;;;;;;;;;28.25;25.75;;;;;3.47;63.33;102523.97;5060525;28;45195;-47
2022/01/16 09:41:29;;;;;;;;;27.00;24.00;;;;;3.49;62.95;102524.91;5060567;28;45229;-46
2022/01/16 09:43:55;;;;;;;;;28.50;23.50;;;;;3.51;63.04;102532.75;5060842;28;45212;-45
2022/01/16 09:46:20;;;;;;;;;26.00;23.75;;;;;3.53;62.78;102545.00;5060513;28;46951;-44
2022/01/16 09:48:45;;;;;;;;;23.75;19.50;;;;;3.54;62.75;102533.78;5060655;28;45254;-48
2022/01/16 09:51:11;;;;;;;;;20.75;17.75;;;;;3.50;63.21;102536.19;5028389;28;45250;-46
2022/01/16 09:53:41;;;;;;;;;26.75;26.00;;;;;3.45;62.77;102525.59;5040391;28;45230;-45
2022/01/16 09:56:07;;;;;;;;;26.75;24.25;;;;;3.47;62.87;102530.84;5039968;28;46650;-49
2022/01/16 09:58:33;;;;;;;;;27.75;23.25;;;;;3.46;63.14;102523.88;5036212;28;45242;-46
2022/01/16 10:00:59;;;;;;;;;21.25;17.50;;;;;3.46;63.14;102534.28;5027244;28;45261;-44
2022/01/16 10:03:46;;;;;;;;;19.25;16.75;;;;;3.46;62.94;102535.19;5040348;28;45250;-44
2022/01/16 10:06:20;;;;;;;;;26.50;24.50;;;;;3.41;62.92;102526.28;5039925;28;46034;-48
2022/01/16 10:08:47;;;;;;;;;23.00;17.75;;;;;3.44;63.42;102536.81;5039986;28;45248;-48
2022/01/16 10:11:30;;;;;;;;;17.00;16.50;;;;;3.50;63.06;102544.88;5040030;28;45408;-49
2022/01/16 10:14:16;;;;;;;;;26.50;20.50;;;;;3.53;63.32;102532.00;5040187;28;45337;-48
2022/01/16 10:16:42;;;;;;;;;28.00;23.25;;;;;3.55;63.14;102532.97;5040001;28;46158;-49
2022/01/16 10:19:23;;;;;;;;;27.00;22.75;;;;;3.52;63.28;102544.94;5039885;28;45506;-49
2022/01/16 10:21:49;;;;;;;;;23.00;18.50;;;;;3.54;63.19;102538.97;5022130;28;45357;-45
2022/01/16 10:24:28;;;;;;;;;25.75;23.00;;;;;3.54;63.21;102538.09;5039879;28;45242;-50
2022/01/16 10:27:08;;;;;;;;;19.00;17.75;;;;;3.61;63.18;102545.34;5039793;28;46255;-45
2022/01/16 10:29:41;;;;;;;;;23.00;22.50;;;;;3.63;63.55;102538.50;5039945;28;45284;-44
2022/01/16 10:32:26;;;;;;;;;26.75;25.75;;;;;3.72;63.35;102527.59;5039776;28;45437;-46
2022/01/16 10:35:20;;;;;;;;;27.50;20.75;;;;;3.79;63.47;102540.03;5039862;28;45274;-45
2022/01/16 10:37:58;;;;;;;;;25.50;25.00;;;;;3.81;63.41;102534.91;5033400;28;47225;-47
2022/01/16 10:40:32;;;;;;;;;22.50;15.25;;;;;3.88;63.78;102529.16;5052926;28;45504;-49
2022/01/16 10:43:03;;;;;;;;;26.50;21.00;;;;;3.94;63.46;102529.41;5039691;28;45417;-47
2022/01/16 10:45:29;;;;;;;;;31.25;24.75;;;;;3.97;63.20;102528.63;5039503;28;45423;-45
2022/01/16 10:47:57;;;;;;;;;21.75;21.75;;;;;4.02;62.88;102528.00;5039507;28;46096;-47
2022/01/16 10:50:39;;;;;;;;;27.50;23.25;;;;;4.05;63.53;102542.84;5047890;28;45278;-50
2022/01/16 10:53:08;;;;;;;;;26.75;26.25;;;;;4.07;63.31;102525.59;5039373;28;45315;-47
2022/01/16 10:55:43;;;;;;;;;33.00;28.00;;;;;4.11;63.55;102535.28;5039620;28;45591;-48
2022/01/16 10:58:11;;;;;;;;;31.25;27.25;;;;;4.17;63.53;102527.72;5039421;28;46313;-47
2022/01/16 11:00:38;;;;;;;;;35.75;33.75;;;;;4.22;63.63;102543.56;5039505;28;45523;-47
2022/01/16 11:03:06;;;;;;;;;28.75;27.00;;;;;4.27;63.23;102534.22;5039417;28;45417;-49
2022/01/16 11:05:41;;;;;;;;;26.25;22.00;;;;;4.31;63.54;102535.22;5034891;28;45522;-46
2022/01/16 11:08:13;;;;;;;;;32.25;25.00;;;;;4.36;63.36;102525.88;5051328;28;45547;-44
2022/01/16 11:10:41;;;;;;;;;31.50;22.50;;;;;4.38;63.38;102532.06;5039288;28;45500;-44
2022/01/16 11:13:10;;;;;;;;;30.50;24.75;;;;;4.38;63.45;102532.94;5039435;28;45286;-45
2022/01/16 11:15:38;;;;;;;;;25.25;20.00;;;;;4.39;63.62;102539.03;5021421;28;45914;-47
2022/01/16 11:18:05;;;;;;;;;26.25;25.75;;;;;4.40;63.63;102522.56;5039257;28;47162;-47
2022/01/16 11:20:36;;;;;;;;;25.50;22.25;;;;;4.42;63.46;102528.72;5039193;28;45376;-47
2022/01/16 11:23:27;;;;;;;;;23.75;21.25;;;;;4.44;63.55;102532.28;5040171;28;45428;-47
2022/01/16 11:26:00;;;;;;;;;26.75;22.25;;;;;4.48;63.71;102542.00;5042641;28;45699;-47
2022/01/16 11:28:25;;;;;;;;;25.75;22.25;;;;;4.52;63.50;102530.00;5042510;28;46106;-45
2022/01/16 11:30:53;;;;;;;;;32.00;27.25;;;;;4.58;63.34;102539.75;5042623;28;45815;-46
2022/01/16 11:33:21;;;;;;;;;26.75;22.75;;;;;4.59;63.21;102526.81;5024940;28;45269;-47
2022/01/16 11:35:53;;;;;;;;;28.75;26.25;;;;;4.58;63.55;102521.50;5042754;28;45234;-45
2022/01/16 11:38:20;;;;;;;;;31.50;26.75;;;;;4.59;63.79;102523.31;5054575;28;46112;-46
2022/01/16 11:40:47;;;;;;;;;26.25;22.75;;;;;4.63;63.57;102533.91;5040933;28;45174;-46
2022/01/16 11:43:29;;;;;;;;;23.25;22.00;;;;;4.63;63.35;102533.91;5042232;28;45379;-47
2022/01/16 11:46:35;;;;;;;;;32.50;27.25;;;;;4.67;63.29;102540.13;5042271;28;45242;-48
2022/01/16 11:49:01;;;;;;;;;33.50;26.00;;;;;4.62;63.36;102532.13;5032215;28;45356;-49
2022/01/16 11:51:36;;;;;;;;;34.00;28.25;;;;;4.60;63.65;102523.34;5043862;28;45809;-44
2022/01/16 11:54:01;;;;;;;;;25.75;22.00;;;;;4.56;63.42;102521.47;5041924;28;45179;-45
2022/01/16 11:59:10;;;;;;;;;21.50;16.00;;;;;4.52;63.80;102515.25;5041914;28;45663;-49
2022/01/16 12:01:57;;;;;;;;;31.50;24.00;;;;;4.55;63.82;102532.69;5042203;28;45308;-45
2022/01/16 12:04:28;;;;;;;;;41.75;28.25;;;;;4.59;63.50;102532.03;5042137;28;45459;-47
2022/01/16 12:06:55;;;;;;;;;30.25;22.50;;;;;4.60;63.41;102525.09;5041944;28;45269;-45
2022/01/16 12:09:59;;;;;;;;;28.25;24.75;;;;;4.61;63.79;102532.94;5023510;28;45969;-48
2022/01/16 12:12:26;;;;;;;;;26.00;20.25;;;;;4.61;63.52;102538.16;5039714;28;45170;-49